Terminal Aerodrome Forecast
Issued by NWS

Home | Current Version | Previous Version | Text Only | Print | Product List | Glossary On
Versions: 1 2 3 4 5 6 7 8 9 10 11 12 13 14 15 16 17 18 19 20 21 22 23 24 25 26 27
000
FTUS42 KMFL 182320
TAFOPF
TAF
KOPF 182320Z 1900/1924 VRB03KT P6SM SCT020 BKN250
     FM190900 00000KT 4SM BR SCT010 BKN250
     FM191300 VRB03KT P6SM SCT010 SCT250
     FM191600 09009KT P6SM SCT030 SCT060 SCT250=

USA.gov is the U.S. government's official web portal to all federal, state and local government web resources and services.